Time;durP1;ratioP1;P1;durP2;ratioP2;P2;SDS_P1;SDS_P2;PMS_P1;PMS_P2;Temp;Humidity;BMP_temperature;BMP_pressure;BME280_temperature;BME280_humidity;BME280_pressure;Samples;Min_cycle;Max_cycle;Signal;HPM_P1;HPM_P2
2022/01/25 00:24:21;;;;;;;12.00;11.60;;;18.20;61.30;;;;;;4933770;29;20453;-50
2022/01/25 00:27:01;;;;;;;12.40;12.00;;;18.20;61.60;;;;;;4971406;28;20482;-47
2022/01/25 00:29:36;;;;;;;12.43;12.03;;;18.10;61.60;;;;;;4993553;28;20558;-45
2022/01/25 00:32:03;;;;;;;12.37;11.97;;;18.10;61.80;;;;;;4993621;28;20446;-49
2022/01/25 00:34:29;;;;;;;12.70;12.30;;;18.10;62.00;;;;;;4995994;28;20458;-46
2022/01/25 00:36:56;;;;;;;12.20;11.90;;;18.10;62.00;;;;;;5012572;28;20483;-47
2022/01/25 00:39:23;;;;;;;12.80;12.40;;;18.10;61.90;;;;;;5012827;28;20466;-50
2022/01/25 00:41:50;;;;;;;11.93;11.53;;;18.10;61.90;;;;;;5012947;28;20812;-48
2022/01/25 00:44:17;;;;;;;12.00;11.70;;;18.20;62.10;;;;;;5012501;28;20442;-46
2022/01/25 00:46:45;;;;;;;12.27;11.87;;;18.10;62.20;;;;;;5012508;28;20508;-49
2022/01/25 00:49:20;;;;;;;12.13;11.73;;;18.10;62.50;;;;;;5012625;28;20478;-46
2022/01/25 00:52:06;;;;;;;12.10;11.77;;;18.10;62.60;;;;;;5012807;28;20445;-49
2022/01/25 00:54:39;;;;;;;11.80;11.50;;;18.10;62.60;;;;;;5012662;28;20488;-49
2022/01/25 00:57:06;;;;;;;12.17;11.77;;;18.10;62.70;;;;;;5012501;28;20556;-50
2022/01/25 00:59:33;;;;;;;12.77;12.27;;;18.10;62.90;;;;;;5012595;28;20545;-48
2022/01/25 01:02:06;;;;;;;12.07;11.70;;;18.10;62.90;;;;;;5012558;28;20450;-49
2022/01/25 01:04:33;;;;;;;11.53;11.23;;;18.00;62.90;;;;;;5012312;28;20450;-46
2022/01/25 01:07:01;;;;;;;12.00;11.70;;;18.00;63.20;;;;;;5012294;28;20843;-49
2022/01/25 01:09:30;;;;;;;12.17;11.80;;;18.00;63.40;;;;;;5012476;28;20465;-47
2022/01/25 01:12:01;;;;;;;11.60;11.27;;;18.00;63.50;;;;;;5012310;28;20550;-47
2022/01/25 01:14:49;;;;;;;12.20;11.80;;;18.00;63.30;;;;;;5012126;28;20446;-45
2022/01/25 01:31:22;;;;;;;12.00;11.70;;;17.90;64.00;;;;;;5012216;28;20819;-45
2022/01/25 01:39:50;;;;;;;12.70;12.20;;;17.90;64.50;;;;;;5109653;27;20523;-46
2022/01/25 01:42:50;;;;;;;12.67;12.27;;;17.90;64.70;;;;;;5089152;28;20453;-48
2022/01/25 01:45:31;;;;;;;12.20;11.80;;;17.90;64.40;;;;;;5068815;28;20446;-49
2022/01/25 01:48:03;;;;;;;11.67;11.27;;;17.80;64.50;;;;;;5068819;28;20432;-45
2022/01/25 01:50:34;;;;;;;11.80;11.50;;;17.80;64.60;;;;;;5108640;22;20466;-50
2022/01/25 01:53:02;;;;;;;12.13;11.83;;;17.80;64.60;;;;;;5037519;28;20485;-51
2022/01/25 01:55:31;;;;;;;11.50;11.10;;;17.80;64.60;;;;;;5048718;28;20549;-51
2022/01/25 01:57:58;;;;;;;12.27;11.87;;;17.80;64.90;;;;;;5048605;28;20495;-51
2022/01/25 02:00:30;;;;;;;11.70;11.40;;;17.80;65.00;;;;;;5048697;28;20467;-51
2022/01/25 02:02:58;;;;;;;12.10;11.80;;;17.80;65.20;;;;;;5046082;28;20499;-53
2022/01/25 02:05:25;;;;;;;12.00;11.70;;;17.80;65.40;;;;;;5008945;28;20830;-52
2022/01/25 02:07:52;;;;;;;11.57;11.17;;;17.80;66.00;;;;;;5008968;28;20446;-54
2022/01/25 02:10:19;;;;;;;11.40;11.10;;;17.70;65.30;;;;;;5008974;28;20457;-54
2022/01/25 02:12:49;;;;;;;12.53;12.13;;;17.80;65.60;;;;;;5009017;28;20764;-53
2022/01/25 02:15:16;;;;;;;11.80;11.50;;;17.70;65.30;;;;;;5008821;28;20469;-52
2022/01/25 02:23:28;;;;;;;11.10;10.80;;;17.70;65.40;;;;;;4972472;28;20442;-52
2022/01/25 02:25:58;;;;;;;11.33;11.03;;;17.70;65.40;;;;;;5009320;28;20464;-51
2022/01/25 02:28:26;;;;;;;11.83;11.53;;;17.80;65.30;;;;;;5027594;28;20441;-52
2022/01/25 02:30:53;;;;;;;12.20;11.67;;;17.70;65.40;;;;;;5028187;28;20465;-50
2022/01/25 02:33:21;;;;;;;11.70;11.40;;;17.70;65.50;;;;;;5027659;28;20445;-51
2022/01/25 02:35:49;;;;;;;11.47;11.07;;;17.70;65.60;;;;;;5026087;28;20441;-51
2022/01/25 02:38:21;;;;;;;11.60;11.30;;;17.70;65.50;;;;;;5028038;28;20491;-54
2022/01/25 02:40:48;;;;;;;11.87;11.50;;;17.60;65.70;;;;;;5028042;28;20472;-55
2022/01/25 02:43:17;;;;;;;11.80;11.50;;;17.50;67.10;;;;;;5019597;28;20991;-51
2022/01/25 02:45:48;;;;;;;12.20;11.80;;;17.50;66.90;;;;;;5008172;28;20458;-50
2022/01/25 02:48:30;;;;;;;12.90;12.30;;;17.50;67.00;;;;;;5008212;28;20454;-50
2022/01/25 02:50:59;;;;;;;12.57;12.17;;;17.50;67.20;;;;;;4994656;28;20480;-54
2022/01/25 02:53:26;;;;;;;12.17;11.87;;;17.50;67.30;;;;;;5004428;28;20508;-51
2022/01/25 02:55:53;;;;;;;12.63;12.20;;;17.50;67.60;;;;;;5014481;28;20446;-54
2022/01/25 02:58:20;;;;;;;12.70;12.30;;;17.40;67.60;;;;;;5014612;28;20486;-51
2022/01/25 03:00:46;;;;;;;11.90;11.60;;;17.40;67.60;;;;;;5014466;28;20485;-50
2022/01/25 03:03:13;;;;;;;12.07;11.77;;;17.40;67.80;;;;;;5006746;28;20442;-52
2022/01/25 03:05:41;;;;;;;12.37;11.77;;;17.40;67.80;;;;;;4994690;28;20451;-49
2022/01/25 03:08:12;;;;;;;12.10;11.60;;;17.50;67.90;;;;;;4994814;28;20505;-52
2022/01/25 03:10:41;;;;;;;12.40;12.00;;;17.40;67.70;;;;;;4994738;28;20455;-52
2022/01/25 03:13:13;;;;;;;12.80;12.40;;;17.40;67.60;;;;;;5001043;28;20955;-51
2022/01/25 03:15:56;;;;;;;11.93;11.63;;;17.40;67.80;;;;;;5014132;28;20477;-51
2022/01/25 03:21:32;;;;;;;12.60;12.20;;;17.40;68.00;;;;;;4972790;28;20444;-50
2022/01/25 03:24:00;;;;;;;12.67;12.20;;;17.40;67.80;;;;;;4994143;28;20534;-55
2022/01/25 03:26:27;;;;;;;13.10;12.50;;;17.30;68.10;;;;;;4994316;28;20454;-54
2022/01/25 03:28:54;;;;;;;12.40;12.00;;;17.40;68.40;;;;;;4994490;28;20435;-53
2022/01/25 03:31:22;;;;;;;13.03;12.53;;;17.40;68.20;;;;;;4994418;28;20467;-53
2022/01/25 03:33:49;;;;;;;12.90;12.50;;;17.30;68.30;;;;;;5005731;28;20803;-51
2022/01/25 03:36:16;;;;;;;12.03;11.73;;;17.30;68.50;;;;;;5013643;28;20438;-55
2022/01/25 03:38:43;;;;;;;12.23;11.93;;;17.30;68.70;;;;;;5013799;28;20843;-55
2022/01/25 03:41:13;;;;;;;12.03;11.73;;;17.30;68.80;;;;;;5013734;28;20470;-54
2022/01/25 03:43:41;;;;;;;12.10;11.80;;;17.30;69.00;;;;;;5003263;28;21033;-52
2022/01/25 03:46:14;;;;;;;12.77;12.37;;;17.30;69.10;;;;;;4994171;28;20821;-52
2022/01/25 03:51:25;;;;;;;12.37;11.97;;;17.20;69.00;;;;;;5006757;28;20996;-53
2022/01/25 03:53:53;;;;;;;11.87;11.57;;;17.30;69.20;;;;;;5004961;28;20936;-54
2022/01/25 03:56:22;;;;;;;12.40;12.10;;;17.30;69.20;;;;;;4993958;28;20447;-52
2022/01/25 03:58:49;;;;;;;13.00;12.50;;;17.30;69.50;;;;;;4993957;28;20855;-53
2022/01/25 04:01:16;;;;;;;12.73;12.43;;;17.40;69.60;;;;;;4993084;28;21006;-51
2022/01/25 04:03:49;;;;;;;12.00;11.63;;;17.50;69.20;;;;;;5000677;28;21068;-53
2022/01/25 04:06:19;;;;;;;12.70;12.40;;;17.50;68.80;;;;;;5013246;28;20454;-53
2022/01/25 04:08:47;;;;;;;12.20;11.90;;;17.60;68.60;;;;;;5013465;28;20446;-52
2022/01/25 04:11:13;;;;;;;12.13;11.83;;;17.50;68.50;;;;;;5013272;28;20477;-56
2022/01/25 04:13:42;;;;;;;12.37;11.97;;;17.60;68.60;;;;;;5006735;28;20451;-53
2022/01/25 04:16:13;;;;;;;12.50;12.20;;;17.60;68.60;;;;;;4993458;28;20476;-54
2022/01/25 04:18:54;;;;;;;13.00;12.60;;;17.50;68.70;;;;;;4993566;28;20483;-52
2022/01/25 04:26:55;;;;;;;12.37;12.07;;;17.60;68.80;;;;;;5012722;28;20436;-53
2022/01/25 04:29:23;;;;;;;12.40;12.00;;;17.50;68.90;;;;;;5013079;28;20446;-51
2022/01/25 04:31:50;;;;;;;12.33;11.93;;;17.60;69.20;;;;;;5012874;28;20462;-52
2022/01/25 04:34:37;;;;;;;12.80;12.40;;;17.50;69.20;;;;;;5002042;28;20816;-51
2022/01/25 04:51:02;;;;;;;12.90;12.50;;;17.50;69.80;;;;;;5012640;28;20612;-51
2022/01/25 04:53:37;;;;;;;12.50;12.10;;;17.50;69.60;;;;;;4995114;28;20490;-53
2022/01/25 04:56:11;;;;;;;12.53;12.13;;;17.50;69.30;;;;;;4992945;28;20454;-53
2022/01/25 04:58:44;;;;;;;12.90;12.40;;;17.40;69.50;;;;;;4992829;28;20482;-51
2022/01/25 05:01:12;;;;;;;13.57;13.07;;;17.40;69.80;;;;;;4992926;28;20980;-53
2022/01/25 05:03:53;;;;;;;14.63;14.13;;;17.40;69.70;;;;;;5011397;28;20985;-52
2022/01/25 05:06:21;;;;;;;13.97;13.57;;;17.50;69.80;;;;;;5012151;28;20446;-54
2022/01/25 05:08:51;;;;;;;12.50;12.10;;;17.50;69.50;;;;;;5012523;28;20457;-52
2022/01/25 05:11:26;;;;;;;13.30;12.90;;;17.40;69.90;;;;;;5012417;28;20480;-51
2022/01/25 05:13:59;;;;;;;13.80;13.40;;;17.50;69.80;;;;;;4992906;28;20871;-50
2022/01/25 05:16:31;;;;;;;13.53;13.03;;;17.50;69.60;;;;;;4992641;28;20505;-54
2022/01/25 05:19:09;;;;;;;13.20;12.70;;;17.40;69.90;;;;;;4992656;28;20880;-55
2022/01/25 05:24:21;;;;;;;13.43;13.03;;;17.40;69.80;;;;;;5012412;28;20484;-51
2022/01/25 05:26:48;;;;;;;14.00;13.50;;;17.50;69.60;;;;;;5011666;28;20989;-50
2022/01/25 05:29:14;;;;;;;13.60;13.20;;;17.50;69.60;;;;;;5012230;28;20442;-56
2022/01/25 05:31:43;;;;;;;13.87;13.37;;;17.40;69.60;;;;;;5009678;28;20484;-52
2022/01/25 05:34:09;;;;;;;13.97;13.47;;;17.40;69.90;;;;;;4992406;28;20447;-52
2022/01/25 05:36:36;;;;;;;13.33;12.93;;;17.50;70.10;;;;;;4992245;28;20459;-55
2022/01/25 05:39:09;;;;;;;13.30;12.90;;;17.40;70.30;;;;;;4992455;28;20486;-54
2022/01/25 05:41:36;;;;;;;13.80;13.30;;;17.40;70.70;;;;;;4992960;28;20494;-51
2022/01/25 05:46:52;;;;;;;13.37;12.97;;;17.30;71.40;;;;;;5009798;28;20434;-50
2022/01/25 05:49:18;;;;;;;13.00;12.70;;;17.30;71.80;;;;;;5011759;28;20446;-51
2022/01/25 05:51:45;;;;;;;13.47;13.07;;;18.00;73.90;;;;;;5009343;28;20477;-55
2022/01/25 05:54:12;;;;;;;13.47;13.07;;;19.10;70.00;;;;;;4992170;28;20807;-52
2022/01/25 05:56:39;;;;;;;13.07;12.67;;;19.80;66.40;;;;;;4991935;28;20944;-52
2022/01/25 05:59:06;;;;;;;14.13;13.63;;;20.20;63.20;;;;;;4992190;28;21003;-51
2022/01/25 06:01:34;;;;;;;13.53;13.13;;;20.50;60.90;;;;;;4992119;28;20829;-51
2022/01/25 06:04:02;;;;;;;14.20;13.80;;;20.70;59.50;;;;;;4992061;28;20446;-51
2022/01/25 06:06:30;;;;;;;13.70;13.30;;;20.80;58.50;;;;;;4991865;28;20455;-52
2022/01/25 06:08:57;;;;;;;14.53;14.03;;;20.90;57.80;;;;;;4991998;28;20478;-51
2022/01/25 06:11:23;;;;;;;13.67;13.27;;;20.90;57.20;;;;;;4991907;28;20467;-56
2022/01/25 06:13:51;;;;;;;14.50;14.03;;;20.90;57.30;;;;;;4992414;28;20447;-54
2022/01/25 06:16:18;;;;;;;14.27;13.00;;;21.00;58.80;;;;;;4991718;28;20525;-54
2022/01/25 06:18:45;;;;;;;14.73;13.93;;;21.20;58.70;;;;;;4991896;28;20921;-53
2022/01/25 06:21:14;;;;;;;16.27;14.97;;;21.20;59.60;;;;;;4991942;28;20848;-52
2022/01/25 06:23:41;;;;;;;16.60;15.60;;;21.20;61.60;;;;;;5008598;28;20473;-51
2022/01/25 06:26:07;;;;;;;17.27;15.93;;;21.20;67.30;;;;;;5014577;28;20449;-57
2022/01/25 06:28:34;;;;;;;17.50;16.17;;;21.30;69.20;;;;;;5015344;28;20448;-52
2022/01/25 06:31:01;;;;;;;16.50;15.70;;;21.20;67.70;;;;;;5014971;28;20469;-53
2022/01/25 06:33:28;;;;;;;15.30;14.60;;;21.20;67.70;;;;;;5015072;28;20452;-49
2022/01/25 06:35:56;;;;;;;15.43;14.60;;;21.10;66.30;;;;;;5014907;28;20445;-49
2022/01/25 06:38:24;;;;;;;15.80;14.90;;;21.10;65.10;;;;;;5014852;28;20532;-49
2022/01/25 06:40:50;;;;;;;16.53;15.73;;;21.10;64.30;;;;;;5014788;28;20504;-54
2022/01/25 06:43:17;;;;;;;14.77;14.07;;;21.10;63.50;;;;;;5014883;28;20802;-50
2022/01/25 06:45:46;;;;;;;14.97;14.27;;;21.00;62.60;;;;;;5014737;28;20446;-53
2022/01/25 06:48:13;;;;;;;16.10;15.10;;;21.00;62.20;;;;;;5014790;28;20449;-49
2022/01/25 06:50:39;;;;;;;16.40;15.40;;;21.00;61.80;;;;;;5014536;28;20462;-49
2022/01/25 06:53:06;;;;;;;16.47;15.37;;;20.90;61.30;;;;;;5014716;28;20453;-54
2022/01/25 06:55:34;;;;;;;16.73;15.57;;;20.90;60.80;;;;;;5014594;28;20461;-53
2022/01/25 06:58:01;;;;;;;15.67;14.83;;;20.90;60.50;;;;;;5014679;28;20477;-50
2022/01/25 07:00:28;;;;;;;15.20;14.50;;;20.90;60.10;;;;;;5014389;28;20481;-50
2022/01/25 07:02:54;;;;;;;16.13;15.27;;;20.90;59.90;;;;;;5014590;28;20452;-51
2022/01/25 07:05:21;;;;;;;14.10;13.60;;;20.80;59.70;;;;;;5014333;28;20446;-52
2022/01/25 07:07:48;;;;;;;15.17;14.17;;;20.80;59.70;;;;;;5014533;28;20453;-55
2022/01/25 07:10:15;;;;;;;15.37;14.57;;;20.80;59.50;;;;;;5014318;28;20935;-51
2022/01/25 07:12:43;;;;;;;15.27;14.60;;;20.70;59.30;;;;;;5014210;28;20815;-47
2022/01/25 07:15:11;;;;;;;15.50;14.47;;;20.70;59.20;;;;;;5014346;28;20449;-49
2022/01/25 07:17:38;;;;;;;13.57;12.83;;;20.70;59.10;;;;;;5014127;28;20545;-50
2022/01/25 07:20:07;;;;;;;14.33;13.37;;;20.60;58.90;;;;;;5014069;28;20859;-50
2022/01/25 07:22:34;;;;;;;14.13;13.13;;;20.60;58.80;;;;;;5014172;28;20882;-50
2022/01/25 07:25:01;;;;;;;14.27;13.33;;;20.50;58.60;;;;;;5014117;28;20516;-50
2022/01/25 07:27:28;;;;;;;13.90;13.20;;;20.50;58.50;;;;;;5013872;28;20449;-50
2022/01/25 07:29:56;;;;;;;13.87;13.27;;;20.50;58.50;;;;;;5014032;28;20958;-50
2022/01/25 07:32:22;;;;;;;13.60;12.80;;;20.40;58.40;;;;;;5013886;28;20472;-49
2022/01/25 07:34:49;;;;;;;13.67;12.97;;;20.40;58.40;;;;;;5014013;28;20442;-50
2022/01/25 07:37:16;;;;;;;14.00;13.20;;;20.30;58.20;;;;;;5013449;28;20461;-49
2022/01/25 07:39:44;;;;;;;13.80;13.10;;;20.30;58.30;;;;;;5013893;28;20477;-50
2022/01/25 07:42:11;;;;;;;14.60;13.90;;;20.30;58.20;;;;;;5013829;28;20482;-51
2022/01/25 07:44:39;;;;;;;13.97;13.37;;;20.20;58.20;;;;;;5013806;28;20454;-51
2022/01/25 07:47:08;;;;;;;14.90;14.10;;;20.20;58.10;;;;;;5013531;28;20939;-50
2022/01/25 07:49:35;;;;;;;14.30;13.37;;;20.10;58.10;;;;;;5013727;28;20808;-52
2022/01/25 07:52:04;;;;;;;15.27;14.53;;;20.10;58.10;;;;;;5015372;28;20836;-54
2022/01/25 07:54:30;;;;;;;14.30;13.70;;;20.10;58.00;;;;;;5016206;28;20932;-55
2022/01/25 07:56:57;;;;;;;13.93;13.40;;;20.10;58.00;;;;;;5016055;28;20533;-55
2022/01/25 07:59:24;;;;;;;12.80;12.40;;;20.00;58.00;;;;;;5015143;28;20486;-55
2022/01/25 08:01:52;;;;;;;14.30;13.47;;;20.00;58.00;;;;;;5015394;28;20474;-52
2022/01/25 08:04:20;;;;;;;14.07;13.50;;;19.90;57.90;;;;;;5017124;28;20446;-49
2022/01/25 08:06:48;;;;;;;14.17;13.47;;;19.80;57.90;;;;;;5016776;28;20442;-53
2022/01/25 08:09:14;;;;;;;12.10;11.70;;;19.80;58.00;;;;;;5016169;28;20513;-50
2022/01/25 08:11:42;;;;;;;12.47;11.77;;;19.80;58.10;;;;;;5016039;28;20477;-55
2022/01/25 08:14:13;;;;;;;13.60;13.10;;;19.70;58.00;;;;;;5017216;28;20552;-53
2022/01/25 08:16:41;;;;;;;14.37;13.47;;;19.70;58.10;;;;;;5017011;28;20446;-51
2022/01/25 08:19:08;;;;;;;14.90;13.77;;;19.60;58.10;;;;;;5017444;28;20453;-55
2022/01/25 08:21:37;;;;;;;14.90;14.40;;;19.50;58.10;;;;;;5018059;28;20466;-54
2022/01/25 08:24:04;;;;;;;14.60;13.90;;;19.50;58.30;;;;;;5017732;28;20805;-52
2022/01/25 08:26:31;;;;;;;14.10;13.50;;;19.40;58.30;;;;;;5016533;28;20456;-55
2022/01/25 08:28:58;;;;;;;14.00;13.50;;;19.30;58.40;;;;;;5016429;28;20442;-51
2022/01/25 08:31:25;;;;;;;14.77;14.10;;;19.30;58.60;;;;;;5015841;28;20466;-54
2022/01/25 08:33:52;;;;;;;13.63;13.13;;;19.20;58.60;;;;;;5015291;28;20452;-54
2022/01/25 08:36:19;;;;;;;14.13;13.63;;;19.20;58.80;;;;;;5014775;28;20450;-53
2022/01/25 08:38:47;;;;;;;13.00;12.60;;;19.20;58.80;;;;;;5014656;28;20460;-55
2022/01/25 08:41:15;;;;;;;14.47;13.80;;;19.10;58.90;;;;;;5014768;28;20493;-55
2022/01/25 08:43:42;;;;;;;13.03;12.63;;;19.00;59.00;;;;;;5017119;28;20820;-52
2022/01/25 08:46:09;;;;;;;13.50;13.10;;;19.00;59.10;;;;;;5017346;28;20449;-51
2022/01/25 08:48:36;;;;;;;13.10;12.60;;;18.90;59.10;;;;;;5017196;28;20803;-51
2022/01/25 08:51:04;;;;;;;13.43;13.03;;;18.90;59.20;;;;;;5017566;28;20474;-55
2022/01/25 08:53:30;;;;;;;14.10;13.50;;;18.90;59.20;;;;;;5016133;28;20454;-54
2022/01/25 08:55:59;;;;;;;12.63;12.03;;;18.80;59.20;;;;;;5015485;28;20446;-53
2022/01/25 08:58:27;;;;;;;12.90;12.50;;;18.80;59.30;;;;;;5017905;28;20450;-55
2022/01/25 09:00:54;;;;;;;13.13;12.73;;;18.70;59.30;;;;;;5016696;28;21002;-51
2022/01/25 09:03:21;;;;;;;14.10;13.60;;;18.70;59.40;;;;;;5017259;28;20450;-54
2022/01/25 09:05:48;;;;;;;13.57;13.07;;;18.70;59.50;;;;;;5017589;28;20446;-52
2022/01/25 09:08:20;;;;;;;13.47;12.97;;;18.70;59.60;;;;;;5015134;28;20802;-53
2022/01/25 09:10:46;;;;;;;13.30;12.70;;;18.60;59.60;;;;;;5013697;28;20474;-54
2022/01/25 09:13:14;;;;;;;13.57;13.07;;;18.60;59.60;;;;;;5014831;28;20438;-52
2022/01/25 09:15:41;;;;;;;13.80;13.30;;;18.50;59.70;;;;;;5014470;28;20453;-52
2022/01/25 09:18:08;;;;;;;13.87;13.43;;;18.40;59.80;;;;;;5013852;28;20449;-55
2022/01/25 09:20:35;;;;;;;13.53;13.03;;;18.40;60.10;;;;;;5013973;28;20485;-55
2022/01/25 09:23:01;;;;;;;13.90;13.40;;;18.40;60.30;;;;;;5015482;28;20450;-51
2022/01/25 09:25:28;;;;;;;13.30;12.70;;;18.40;60.40;;;;;;5016176;28;20792;-52
2022/01/25 09:27:55;;;;;;;12.93;12.53;;;18.60;60.50;;;;;;5019612;28;20456;-50
2022/01/25 09:30:24;;;;;;;13.00;12.60;;;18.90;59.90;;;;;;5020032;28;20453;-48
2022/01/25 09:32:50;;;;;;;12.77;12.37;;;19.00;59.40;;;;;;5018179;28;20453;-55
2022/01/25 09:35:17;;;;;;;13.03;12.43;;;19.20;58.90;;;;;;5016442;28;20458;-47
2022/01/25 09:37:45;;;;;;;12.77;12.47;;;19.20;58.40;;;;;;5018024;28;20450;-48
2022/01/25 09:40:13;;;;;;;13.33;12.90;;;19.30;58.80;;;;;;5018964;28;20492;-49
2022/01/25 09:42:41;;;;;;;13.40;12.90;;;19.30;58.00;;;;;;5018004;28;20485;-55
2022/01/25 09:45:09;;;;;;;13.60;13.00;;;19.40;57.80;;;;;;5017230;28;20800;-49
2022/01/25 09:47:39;;;;;;;14.10;13.50;;;19.40;57.60;;;;;;5016217;28;20448;-51
2022/01/25 09:50:06;;;;;;;12.80;12.40;;;19.40;57.50;;;;;;5015791;28;20449;-54
2022/01/25 09:52:34;;;;;;;14.07;13.47;;;19.40;57.50;;;;;;5016400;28;20481;-54
2022/01/25 09:55:01;;;;;;;12.43;12.10;;;19.30;57.40;;;;;;5016607;28;20449;-52
2022/01/25 09:57:29;;;;;;;13.00;12.40;;;19.40;57.50;;;;;;5014345;28;20446;-52
2022/01/25 09:59:56;;;;;;;12.40;12.10;;;19.40;57.30;;;;;;5015019;28;20482;-53
2022/01/25 10:02:47;;;;;;;12.10;11.80;;;19.40;57.30;;;;;;5017600;28;20470;-54
2022/01/25 10:05:27;;;;;;;13.07;12.67;;;19.40;57.20;;;;;;5016883;28;20955;-55
2022/01/25 10:08:02;;;;;;;14.13;13.63;;;19.30;57.10;;;;;;5017125;28;20540;-55
2022/01/25 10:10:30;;;;;;;13.20;12.70;;;19.30;57.10;;;;;;5018182;28;20931;-50
2022/01/25 10:13:07;;;;;;;12.40;12.10;;;19.30;57.10;;;;;;5021404;28;20456;-51
2022/01/25 10:15:35;;;;;;;13.10;12.70;;;19.30;57.10;;;;;;5020938;28;20503;-52
2022/01/25 10:18:04;;;;;;;13.00;12.50;;;19.20;57.10;;;;;;5018914;28;20807;-52
2022/01/25 10:20:32;;;;;;;13.90;13.40;;;19.20;57.20;;;;;;5016899;28;21018;-54
2022/01/25 10:23:01;;;;;;;12.67;12.27;;;19.10;57.10;;;;;;5019332;28;20450;-48
2022/01/25 10:25:34;;;;;;;13.10;12.70;;;19.00;57.20;;;;;;5022217;28;20544;-50
2022/01/25 10:28:10;;;;;;;13.30;12.90;;;19.00;57.40;;;;;;5019872;28;20943;-51
2022/01/25 10:30:39;;;;;;;12.30;12.00;;;18.90;57.50;;;;;;5019273;28;20823;-53
2022/01/25 10:33:20;;;;;;;13.17;12.77;;;18.90;57.60;;;;;;5017187;28;20449;-52
2022/01/25 10:35:47;;;;;;;12.00;11.70;;;18.80;57.70;;;;;;5017788;28;20531;-52
2022/01/25 10:38:22;;;;;;;11.93;11.60;;;18.80;57.70;;;;;;5019794;28;20488;-51
2022/01/25 10:40:58;;;;;;;13.50;13.07;;;18.80;57.80;;;;;;5018936;28;20492;-53
2022/01/25 10:43:26;;;;;;;13.07;12.67;;;18.70;57.90;;;;;;5016963;28;20834;-53
2022/01/25 10:46:12;;;;;;;12.90;12.50;;;18.70;57.90;;;;;;5016158;28;20569;-54
2022/01/25 10:48:43;;;;;;;12.80;12.40;;;18.60;58.00;;;;;;5016112;28;20811;-53
2022/01/25 10:51:11;;;;;;;12.70;12.30;;;18.60;58.00;;;;;;5016296;28;20476;-54
2022/01/25 10:53:39;;;;;;;13.13;12.73;;;18.60;58.10;;;;;;5020274;28;20448;-49
2022/01/25 10:56:08;;;;;;;12.40;12.00;;;18.60;58.10;;;;;;5022074;28;20758;-52
2022/01/25 10:58:38;;;;;;;13.37;12.97;;;18.50;58.10;;;;;;5019577;28;20452;-55
2022/01/25 11:01:05;;;;;;;13.20;12.80;;;18.50;58.10;;;;;;5019073;28;20907;-55
2022/01/25 11:03:34;;;;;;;12.90;12.40;;;18.50;58.10;;;;;;5020448;28;20464;-50
2022/01/25 11:06:16;;;;;;;13.67;13.17;;;18.40;58.20;;;;;;5019621;28;20454;-50
2022/01/25 11:08:46;;;;;;;13.33;12.87;;;18.40;59.30;;;;;;5014586;28;20538;-56
2022/01/25 11:11:24;;;;;;;13.07;12.57;;;18.40;59.90;;;;;;4998333;28;20840;-53
2022/01/25 11:13:53;;;;;;;13.73;13.33;;;18.40;61.00;;;;;;4996818;28;20447;-53
2022/01/25 11:16:19;;;;;;;11.60;11.20;;;18.40;61.70;;;;;;4996775;28;20440;-57
2022/01/25 11:18:47;;;;;;;13.50;13.10;;;18.40;62.50;;;;;;5002415;28;20668;-59
2022/01/25 11:21:15;;;;;;;14.87;14.37;;;18.50;62.60;;;;;;5020493;28;20496;-58
2022/01/25 11:23:44;;;;;;;13.23;12.73;;;18.50;63.00;;;;;;5020554;28;20442;-56
2022/01/25 11:26:13;;;;;;;13.60;13.10;;;18.50;63.80;;;;;;5018738;28;20453;-57
2022/01/25 11:28:41;;;;;;;13.77;13.27;;;18.50;64.30;;;;;;5019400;28;20449;-56
2022/01/25 11:31:10;;;;;;;13.43;12.97;;;18.40;64.50;;;;;;5017497;28;20470;-56
2022/01/25 11:33:43;;;;;;;13.03;12.60;;;18.40;64.80;;;;;;5019028;28;20457;-55
2022/01/25 11:36:11;;;;;;;13.83;13.33;;;18.50;64.30;;;;;;5019368;28;20450;-57
2022/01/25 11:38:43;;;;;;;13.73;13.23;;;18.40;64.00;;;;;;5018844;28;20453;-58
2022/01/25 11:41:11;;;;;;;14.27;13.70;;;18.30;63.90;;;;;;5018296;28;20486;-57
2022/01/25 11:43:39;;;;;;;14.10;13.60;;;18.40;63.80;;;;;;5019350;28;20450;-58
2022/01/25 11:46:08;;;;;;;14.20;13.60;;;18.30;63.70;;;;;;5018911;28;20446;-58
2022/01/25 11:48:45;;;;;;;13.73;13.33;;;18.30;63.50;;;;;;5018251;28;20500;-57
2022/01/25 11:51:20;;;;;;;14.33;13.83;;;18.20;63.30;;;;;;5017952;28;20469;-57
2022/01/25 11:53:50;;;;;;;13.40;13.00;;;18.20;63.20;;;;;;5017641;28;20803;-54
2022/01/25 11:56:18;;;;;;;14.13;13.63;;;18.20;63.20;;;;;;5016391;28;20462;-53
2022/01/25 11:58:54;;;;;;;13.97;13.50;;;18.20;63.10;;;;;;5017951;28;20468;-57
2022/01/25 12:01:23;;;;;;;14.30;13.80;;;18.20;62.80;;;;;;5017511;28;20490;-57
2022/01/25 12:03:52;;;;;;;13.33;12.93;;;18.20;62.90;;;;;;5017310;28;20493;-53
2022/01/25 12:06:22;;;;;;;14.50;14.00;;;18.10;62.80;;;;;;5017467;28;20461;-56
2022/01/25 12:09:20;;;;;;;14.37;13.87;;;18.10;62.70;;;;;;5017362;28;20460;-58
2022/01/25 12:11:51;;;;;;;13.00;12.60;;;18.10;62.60;;;;;;5016880;28;20489;-57
2022/01/25 12:14:24;;;;;;;13.90;13.40;;;18.10;62.70;;;;;;5017954;28;20454;-55
2022/01/25 12:16:57;;;;;;;14.50;14.00;;;18.10;62.70;;;;;;5018263;28;20438;-58
2022/01/25 12:19:35;;;;;;;14.27;13.77;;;18.10;62.70;;;;;;5016442;28;20446;-53
2022/01/25 12:22:06;;;;;;;14.67;14.17;;;18.00;62.60;;;;;;5015221;28;20573;-52
2022/01/25 12:24:41;;;;;;;13.40;13.00;;;18.00;62.60;;;;;;5016657;28;20995;-57
2022/01/25 12:27:17;;;;;;;13.47;13.07;;;18.00;62.50;;;;;;5015984;28;20935;-54
2022/01/25 12:29:45;;;;;;;13.80;13.30;;;18.00;62.60;;;;;;5016491;28;20446;-53
2022/01/25 12:32:25;;;;;;;13.43;13.03;;;18.10;62.50;;;;;;5016439;28;20462;-57
2022/01/25 12:35:05;;;;;;;13.30;12.90;;;18.20;62.40;;;;;;5017483;28;20532;-54
2022/01/25 12:37:55;;;;;;;13.33;12.93;;;18.40;62.00;;;;;;5017443;28;20441;-54
2022/01/25 12:40:35;;;;;;;13.47;13.03;;;18.50;61.20;;;;;;5017200;28;20453;-57
2022/01/25 12:43:05;;;;;;;14.07;13.57;;;18.50;60.80;;;;;;5016806;28;20446;-56
2022/01/25 12:45:34;;;;;;;14.57;13.97;;;18.60;60.40;;;;;;5016609;28;20446;-56
2022/01/25 12:48:04;;;;;;;13.87;13.47;;;18.60;60.00;;;;;;5016127;28;20831;-56
2022/01/25 12:50:31;;;;;;;14.47;14.00;;;18.60;59.90;;;;;;5015726;28;20452;-58
2022/01/25 12:53:00;;;;;;;13.67;13.17;;;18.60;59.80;;;;;;5015475;28;20438;-58
2022/01/25 12:55:30;;;;;;;13.47;13.00;;;18.60;59.80;;;;;;5015229;28;20512;-58
2022/01/25 12:57:59;;;;;;;12.90;12.50;;;18.50;59.80;;;;;;5016470;28;20450;-55
2022/01/25 13:00:31;;;;;;;14.33;13.83;;;18.50;59.80;;;;;;5017133;28;20472;-56
2022/01/25 13:03:16;;;;;;;14.37;13.87;;;18.50;59.80;;;;;;5016013;28;20443;-56
2022/01/25 13:05:45;;;;;;;13.80;13.30;;;18.40;59.80;;;;;;5015693;28;20438;-55
2022/01/25 13:08:17;;;;;;;13.67;13.27;;;18.30;59.80;;;;;;5016396;28;20442;-57
2022/01/25 13:10:44;;;;;;;14.13;13.63;;;18.30;59.80;;;;;;5015030;28;20466;-57
2022/01/25 13:13:23;;;;;;;13.30;12.90;;;18.30;59.90;;;;;;5015288;28;20449;-55
2022/01/25 13:15:56;;;;;;;13.30;12.90;;;18.30;59.90;;;;;;5014988;28;20456;-56
2022/01/25 13:18:26;;;;;;;13.73;13.33;;;18.20;59.90;;;;;;5015347;28;20528;-56
2022/01/25 13:21:04;;;;;;;14.03;13.63;;;18.20;60.10;;;;;;5015066;28;20485;-55
2022/01/25 13:23:32;;;;;;;13.60;13.20;;;18.20;60.20;;;;;;5014746;28;20442;-57
2022/01/25 13:26:08;;;;;;;14.40;14.00;;;18.20;60.20;;;;;;5014272;28;20514;-53
2022/01/25 13:28:52;;;;;;;13.97;13.57;;;18.10;60.30;;;;;;5014895;28;20441;-58
2022/01/25 13:31:20;;;;;;;13.90;13.30;;;18.10;60.30;;;;;;5014962;28;20815;-54
2022/01/25 13:33:46;;;;;;;15.00;14.50;;;18.10;60.30;;;;;;5014866;28;20442;-55
2022/01/25 13:36:16;;;;;;;14.03;13.63;;;18.10;60.30;;;;;;5014070;28;20449;-58
2022/01/25 13:38:43;;;;;;;13.97;13.47;;;18.10;60.40;;;;;;5014097;28;20457;-55
2022/01/25 13:41:19;;;;;;;14.13;13.70;;;18.10;60.40;;;;;;5016374;28;20482;-55
2022/01/25 13:46:36;;;;;;;13.27;12.87;;;18.00;60.40;;;;;;5013956;28;20433;-56
2022/01/25 13:49:05;;;;;;;13.97;13.47;;;18.00;60.50;;;;;;5014330;28;20601;-55
2022/01/25 13:51:39;;;;;;;13.37;12.97;;;18.00;60.50;;;;;;5013499;28;20822;-53
2022/01/25 13:54:06;;;;;;;13.43;12.93;;;18.00;60.50;;;;;;5011953;28;20963;-52
2022/01/25 13:56:36;;;;;;;12.90;12.50;;;18.00;60.50;;;;;;5011866;28;20446;-56
2022/01/25 13:59:07;;;;;;;12.17;11.77;;;18.40;60.50;;;;;;5011813;28;20445;-53
2022/01/25 14:01:36;;;;;;;12.47;12.00;;;18.70;59.60;;;;;;5011835;28;20490;-55
2022/01/25 14:04:05;;;;;;;12.67;12.27;;;18.80;59.00;;;;;;5011719;28;20452;-51